Time;durP1;ratioP1;P1;durP2;ratioP2;P2;SDS_P1;SDS_P2;PMS_P1;PMS_P2;Temp;Humidity;BMP_temperature;BMP_pressure;BME280_temperature;BME280_humidity;BME280_pressure;Samples;Min_cycle;Max_cycle;Signal;HPM_P1;HPM_P2
2022/07/29 00:00:40;;;;;;;;;;;;;;;;;;5017382;28;19909;-29
2022/07/29 00:03:06;;;;;;;;;;;;;;;;;;5018192;28;19960;-29
2022/07/29 00:05:32;;;;;;;;;;;;;;;;;;5017318;28;20311;-28
2022/07/29 00:07:58;;;;;;;;;;;;;;;;;;5018208;28;19932;-28
2022/07/29 00:10:24;;;;;;;;;;;;;;;;;;5018453;28;19917;-29
2022/07/29 00:12:50;;;;;;;;;;;;;;;;;;5017988;28;20241;-28
2022/07/29 00:15:16;;;;;;;;;;;;;;;;;;5017111;28;19916;-29
2022/07/29 00:17:42;;;;;;;;;;;;;;;;;;5018007;28;20378;-29
2022/07/29 00:20:08;;;;;;;;;;;;;;;;;;5018004;28;19971;-28
2022/07/29 00:22:34;;;;;;;;;;;;;;;;;;5018122;28;19921;-29
2022/07/29 00:25:00;;;;;;;;;;;;;;;;;;5016949;28;19910;-29
2022/07/29 00:27:26;;;;;;;;;;;;;;;;;;5017153;28;19964;-29
2022/07/29 00:29:52;;;;;;;;;;;;;;;;;;5017785;28;19925;-28
2022/07/29 00:32:18;;;;;;;;;;;;;;;;;;5017585;28;19924;-29
2022/07/29 00:37:29;;;;;;;;;;;;;;;;;;5017703;28;19920;-29
2022/07/29 00:39:55;;;;;;;;;;;;;;;;;;5017567;28;20233;-29
2022/07/29 00:42:21;;;;;;;;;;;;;;;;;;5017508;28;19920;-29
2022/07/29 00:44:47;;;;;;;;;;;;;;;;;;5017496;28;19913;-28
2022/07/29 00:47:13;;;;;;;;;;;;;;;;;;5017511;28;20311;-30
2022/07/29 00:49:39;;;;;;;;;;;;;;;;;;5017412;28;20004;-29
2022/07/29 00:52:05;;;;;;;;;;;;;;;;;;5017569;28;19913;-29
2022/07/29 00:54:31;;;;;;;;;;;;;;;;;;5017348;28;19920;-28
2022/07/29 00:56:57;;;;;;;;;;;;;;;;;;5017277;28;19953;-29
2022/07/29 00:59:23;;;;;;;;;;;;;;;;;;5017238;28;19971;-30
2022/07/29 01:01:49;;;;;;;;;;;;;;;;;;5016228;28;19960;-29
2022/07/29 01:04:15;;;;;;;;;;;;;;;;;;5017053;28;19917;-28
2022/07/29 01:06:41;;;;;;;;;;;;;;;;;;5017359;28;19924;-28
2022/07/29 01:09:07;;;;;;;;;;;;;;;;;;5017022;28;19909;-28
2022/07/29 01:11:33;;;;;;;;;;;;;;;;;;5015984;28;19918;-29
2022/07/29 01:13:59;;;;;;;;;;;;;;;;;;5016914;28;19913;-28
2022/07/29 01:16:25;;;;;;;;;;;;;;;;;;5016979;28;19909;-29
2022/07/29 01:18:50;;;;;;;;;;;;;;;;;;5017169;28;19917;-29
2022/07/29 01:21:16;;;;;;;;;;;;;;;;;;5016875;28;20008;-29
2022/07/29 01:23:42;;;;;;;;;;;;;;;;;;5017002;28;19924;-29
2022/07/29 01:26:08;;;;;;;;;;;;;;;;;;5016789;28;19913;-30
2022/07/29 01:28:34;;;;;;;;;;;;;;;;;;5016703;28;19917;-29
2022/07/29 01:31:00;;;;;;;;;;;;;;;;;;5016957;28;20378;-29
2022/07/29 01:36:11;;;;;;;;;;;;;;;;;;5016632;28;20268;-29
2022/07/29 01:38:37;;;;;;;;;;;;;;;;;;5014614;28;19996;-29
2022/07/29 01:41:03;;;;;;;;;;;;;;;;;;5016747;28;20012;-29
2022/07/29 01:43:29;;;;;;;;;;;;;;;;;;5016389;28;20323;-29
2022/07/29 01:45:55;;;;;;;;;;;;;;;;;;5016367;28;19924;-29
2022/07/29 01:48:21;;;;;;;;;;;;;;;;;;5016335;28;19914;-29
2022/07/29 01:50:47;;;;;;;;;;;;;;;;;;5015363;28;19968;-28
2022/07/29 01:53:13;;;;;;;;;;;;;;;;;;5016085;28;20337;-29
2022/07/29 01:55:39;;;;;;;;;;;;;;;;;;5016487;28;19909;-29
2022/07/29 01:58:05;;;;;;;;;;;;;;;;;;5016104;28;19917;-29
2022/07/29 02:00:31;;;;;;;;;;;;;;;;;;5016131;28;19925;-29
2022/07/29 02:02:57;;;;;;;;;;;;;;;;;;5015808;28;20223;-29
2022/07/29 02:05:23;;;;;;;;;;;;;;;;;;5016357;28;19945;-30
2022/07/29 02:07:49;;;;;;;;;;;;;;;;;;5016005;28;19913;-29
2022/07/29 02:10:15;;;;;;;;;;;;;;;;;;5015942;28;20337;-29
2022/07/29 02:12:41;;;;;;;;;;;;;;;;;;5015733;28;19918;-29
2022/07/29 02:15:08;;;;;;;;;;;;;;;;;;5015258;28;19945;-29
2022/07/29 02:17:34;;;;;;;;;;;;;;;;;;5014878;28;19910;-29
2022/07/29 02:20:00;;;;;;;;;;;;;;;;;;5015855;28;19936;-28
2022/07/29 02:22:26;;;;;;;;;;;;;;;;;;5015954;28;19914;-30
2022/07/29 02:24:52;;;;;;;;;;;;;;;;;;5015740;28;20337;-29
2022/07/29 02:27:18;;;;;;;;;;;;;;;;;;5015941;28;20244;-29
2022/07/29 02:29:44;;;;;;;;;;;;;;;;;;5014689;28;19920;-29
2022/07/29 02:32:10;;;;;;;;;;;;;;;;;;5015419;28;19924;-29
2022/07/29 02:34:36;;;;;;;;;;;;;;;;;;5015616;28;19975;-28
2022/07/29 02:37:02;;;;;;;;;;;;;;;;;;5015551;28;19913;-29
2022/07/29 02:39:28;;;;;;;;;;;;;;;;;;5014567;28;19913;-29
2022/07/29 02:41:54;;;;;;;;;;;;;;;;;;5015675;28;19913;-28
2022/07/29 02:44:20;;;;;;;;;;;;;;;;;;5015474;28;19914;-29
2022/07/29 02:46:46;;;;;;;;;;;;;;;;;;5015438;28;19909;-29
2022/07/29 02:49:12;;;;;;;;;;;;;;;;;;5015100;28;19913;-29
2022/07/29 02:51:38;;;;;;;;;;;;;;;;;;5015349;28;19932;-29
2022/07/29 02:54:04;;;;;;;;;;;;;;;;;;5015283;28;20257;-29
2022/07/29 02:56:34;;;;;;;;;;;;;;;;;;5015395;28;19964;-29
2022/07/29 02:59:00;;;;;;;;;;;;;;;;;;5015390;28;20303;-29
2022/07/29 03:01:28;;;;;;;;;;;;;;;;;;5015346;28;19914;-29
2022/07/29 03:03:54;;;;;;;;;;;;;;;;;;5015021;28;19948;-29
2022/07/29 03:06:20;;;;;;;;;;;;;;;;;;5015541;28;19964;-29
2022/07/29 03:08:46;;;;;;;;;;;;;;;;;;5015268;28;20390;-29
2022/07/29 03:11:12;;;;;;;;;;;;;;;;;;5015118;28;19917;-29
2022/07/29 03:13:38;;;;;;;;;;;;;;;;;;5015066;28;20337;-28
2022/07/29 03:16:04;;;;;;;;;;;;;;;;;;5015151;28;19913;-28
2022/07/29 03:18:30;;;;;;;;;;;;;;;;;;5015131;28;20286;-29
2022/07/29 03:20:56;;;;;;;;;;;;;;;;;;5014066;28;19913;-29
2022/07/29 03:23:23;;;;;;;;;;;;;;;;;;5014999;28;19909;-29
2022/07/29 03:25:49;;;;;;;;;;;;;;;;;;5016195;28;20202;-28
2022/07/29 03:28:15;;;;;;;;;;;;;;;;;;5015007;28;20292;-29
2022/07/29 03:30:41;;;;;;;;;;;;;;;;;;5015602;28;19909;-28
2022/07/29 03:33:07;;;;;;;;;;;;;;;;;;5014841;28;20272;-28
2022/07/29 03:35:33;;;;;;;;;;;;;;;;;;5015212;28;19992;-29
2022/07/29 03:37:59;;;;;;;;;;;;;;;;;;5013971;28;19914;-29
2022/07/29 03:40:25;;;;;;;;;;;;;;;;;;5014905;28;19917;-29
2022/07/29 03:42:51;;;;;;;;;;;;;;;;;;5014798;28;19913;-29
2022/07/29 03:45:17;;;;;;;;;;;;;;;;;;5015088;28;19971;-29
2022/07/29 03:47:43;;;;;;;;;;;;;;;;;;5015114;28;19961;-29
2022/07/29 03:50:09;;;;;;;;;;;;;;;;;;5014827;28;19941;-28
2022/07/29 03:52:35;;;;;;;;;;;;;;;;;;5014910;28;19955;-29
2022/07/29 03:55:01;;;;;;;;;;;;;;;;;;5015032;28;19945;-29
2022/07/29 03:57:27;;;;;;;;;;;;;;;;;;5014637;28;19922;-29
2022/07/29 03:59:53;;;;;;;;;;;;;;;;;;5013656;28;19949;-29
2022/07/29 04:02:19;;;;;;;;;;;;;;;;;;5015969;28;19917;-29
2022/07/29 04:04:45;;;;;;;;;;;;;;;;;;5018390;28;20260;-28
2022/07/29 04:07:11;;;;;;;;;;;;;;;;;;5017983;28;19909;-29
2022/07/29 04:09:37;;;;;;;;;;;;;;;;;;5017924;28;19920;-28
2022/07/29 04:12:03;;;;;;;;;;;;;;;;;;5018189;28;20375;-28
2022/07/29 04:14:29;;;;;;;;;;;;;;;;;;5018063;28;19921;-28
2022/07/29 04:16:55;;;;;;;;;;;;;;;;;;5017104;28;19920;-29
2022/07/29 04:19:21;;;;;;;;;;;;;;;;;;5017935;28;20012;-29
2022/07/29 04:21:47;;;;;;;;;;;;;;;;;;5017774;28;20001;-30
2022/07/29 04:24:13;;;;;;;;;;;;;;;;;;5018185;28;19928;-29
2022/07/29 04:26:39;;;;;;;;;;;;;;;;;;5017773;28;19914;-28
2022/07/29 04:29:05;;;;;;;;;;;;;;;;;;5017907;28;19917;-29
2022/07/29 04:31:31;;;;;;;;;;;;;;;;;;5017814;28;19920;-29
2022/07/29 04:33:57;;;;;;;;;;;;;;;;;;5017607;28;19918;-29
2022/07/29 04:36:23;;;;;;;;;;;;;;;;;;5016652;28;20398;-29
2022/07/29 04:38:49;;;;;;;;;;;;;;;;;;5017817;28;20005;-29
2022/07/29 04:41:15;;;;;;;;;;;;;;;;;;5016590;28;19945;-28
2022/07/29 04:43:41;;;;;;;;;;;;;;;;;;5017397;28;19913;-29
2022/07/29 04:46:07;;;;;;;;;;;;;;;;;;5017410;28;19924;-29
2022/07/29 04:48:33;;;;;;;;;;;;;;;;;;5017511;28;20372;-28
2022/07/29 04:50:59;;;;;;;;;;;;;;;;;;5017242;28;19917;-30
2022/07/29 04:53:25;;;;;;;;;;;;;;;;;;5017128;28;19917;-29
2022/07/29 04:55:51;;;;;;;;;;;;;;;;;;5017137;28;20036;-29
2022/07/29 04:58:17;;;;;;;;;;;;;;;;;;5017073;28;19961;-29
2022/07/29 05:00:43;;;;;;;;;;;;;;;;;;5015991;28;19953;-29
2022/07/29 05:03:09;;;;;;;;;;;;;;;;;;5016610;28;19918;-29
2022/07/29 05:05:35;;;;;;;;;;;;;;;;;;5016850;28;19945;-31
2022/07/29 05:08:01;;;;;;;;;;;;;;;;;;5016931;28;19913;-29
2022/07/29 05:10:27;;;;;;;;;;;;;;;;;;5016873;28;19960;-29
2022/07/29 05:12:53;;;;;;;;;;;;;;;;;;5016582;28;19921;-28
2022/07/29 05:15:19;;;;;;;;;;;;;;;;;;5015861;28;19914;-28
2022/07/29 05:17:45;;;;;;;;;;;;;;;;;;5017052;28;20371;-29
2022/07/29 05:20:11;;;;;;;;;;;;;;;;;;5017094;28;19918;-29
2022/07/29 05:22:37;;;;;;;;;;;;;;;;;;5016703;28;20233;-29
2022/07/29 05:25:03;;;;;;;;;;;;;;;;;;5016734;28;20003;-29
2022/07/29 05:27:29;;;;;;;;;;;;;;;;;;5016754;28;20413;-29
2022/07/29 05:29:56;;;;;;;;;;;;;;;;;;5016553;28;19910;-29
2022/07/29 05:32:22;;;;;;;;;;;;;;;;;;5016588;28;19976;-28
2022/07/29 05:34:48;;;;;;;;;;;;;;;;;;5015548;28;20229;-29
2022/07/29 05:37:14;;;;;;;;;;;;;;;;;;5016686;28;19964;-29
2022/07/29 05:39:40;;;;;;;;;;;;;;;;;;5015362;28;19910;-29
2022/07/29 05:42:06;;;;;;;;;;;;;;;;;;5015329;28;20004;-29
2022/07/29 05:44:32;;;;;;;;;;;;;;;;;;5015321;28;20304;-29
2022/07/29 05:46:58;;;;;;;;;;;;;;;;;;5016184;28;19920;-29
2022/07/29 05:49:24;;;;;;;;;;;;;;;;;;5016340;28;20000;-29
2022/07/29 05:51:50;;;;;;;;;;;;;;;;;;5016175;28;20291;-28
2022/07/29 05:54:16;;;;;;;;;;;;;;;;;;5016265;28;20221;-29
2022/07/29 05:56:42;;;;;;;;;;;;;;;;;;5015976;28;20265;-29
2022/07/29 05:59:08;;;;;;;;;;;;;;;;;;5016298;28;19920;-29
2022/07/29 06:01:39;;;;;;;;;;;;;;;;;;5015937;28;20011;-29
2022/07/29 06:04:05;;;;;;;;;;;;;;;;;;5014722;28;19918;-29
2022/07/29 06:06:31;;;;;;;;;;;;;;;;;;5014948;28;19983;-29
2022/07/29 06:08:56;;;;;;;;;;;;;;;;;;5015898;28;19914;-29
2022/07/29 06:11:22;;;;;;;;;;;;;;;;;;5015820;28;19957;-28
2022/07/29 06:13:48;;;;;;;;;;;;;;;;;;5015608;28;19921;-28
2022/07/29 06:16:14;;;;;;;;;;;;;;;;;;5015928;28;19913;-29
2022/07/29 06:18:40;;;;;;;;;;;;;;;;;;5015768;28;19914;-29
2022/07/29 06:21:06;;;;;;;;;;;;;;;;;;5015769;28;19909;-28
2022/07/29 06:23:32;;;;;;;;;;;;;;;;;;5015508;28;20352;-29
2022/07/29 06:25:59;;;;;;;;;;;;;;;;;;5015072;28;19910;-28
2022/07/29 06:28:25;;;;;;;;;;;;;;;;;;5014616;28;19924;-28
2022/07/29 06:30:51;;;;;;;;;;;;;;;;;;5015862;28;19917;-28
2022/07/29 06:33:18;;;;;;;;;;;;;;;;;;5015317;28;20265;-29
2022/07/29 06:35:45;;;;;;;;;;;;;;;;;;5015373;28;19909;-29
2022/07/29 06:38:12;;;;;;;;;;;;;;;;;;5014392;28;20252;-29
2022/07/29 06:43:22;;;;;;;;;;;;;;;;;;5015456;28;19988;-29
2022/07/29 06:45:48;;;;;;;;;;;;;;;;;;5015165;28;19913;-29
2022/07/29 06:48:14;;;;;;;;;;;;;;;;;;5014114;28;19914;-29
2022/07/29 06:50:40;;;;;;;;;;;;;;;;;;5015235;28;19936;-29
2022/07/29 06:53:06;;;;;;;;;;;;;;;;;;5014989;28;19960;-29
2022/07/29 06:55:32;;;;;;;;;;;;;;;;;;5015434;28;20348;-28
2022/07/29 06:57:58;;;;;;;;;;;;;;;;;;5015301;28;19914;-29
2022/07/29 07:00:24;;;;;;;;;;;;;;;;;;5015175;28;19937;-29
2022/07/29 07:02:50;;;;;;;;;;;;;;;;;;5014757;28;20004;-28
2022/07/29 07:05:16;;;;;;;;;;;;;;;;;;5014884;28;20014;-29
2022/07/29 07:07:42;;;;;;;;;;;;;;;;;;5014227;28;20017;-29
2022/07/29 07:10:08;;;;;;;;;;;;;;;;;;5015330;28;19918;-29
2022/07/29 07:12:34;;;;;;;;;;;;;;;;;;5014934;28;19932;-29
2022/07/29 07:15:00;;;;;;;;;;;;;;;;;;5015024;28;20229;-29
2022/07/29 07:17:26;;;;;;;;;;;;;;;;;;5013953;28;19945;-29
2022/07/29 07:19:52;;;;;;;;;;;;;;;;;;5014859;28;19948;-29
2022/07/29 07:22:18;;;;;;;;;;;;;;;;;;5014844;28;19917;-29
2022/07/29 07:24:44;;;;;;;;;;;;;;;;;;5015090;28;19909;-29
2022/07/29 07:27:10;;;;;;;;;;;;;;;;;;5014768;28;19924;-29
2022/07/29 07:29:36;;;;;;;;;;;;;;;;;;5014795;28;19916;-29
2022/07/29 07:32:02;;;;;;;;;;;;;;;;;;5014695;28;19922;-29
2022/07/29 07:34:29;;;;;;;;;;;;;;;;;;5014719;28;20370;-29
2022/07/29 07:36:55;;;;;;;;;;;;;;;;;;5014997;28;19949;-29
2022/07/29 07:39:21;;;;;;;;;;;;;;;;;;5018576;28;20241;-29
2022/07/29 07:41:47;;;;;;;;;;;;;;;;;;5018485;28;19909;-29
2022/07/29 07:44:13;;;;;;;;;;;;;;;;;;5018460;28;19917;-28
2022/07/29 07:46:39;;;;;;;;;;;;;;;;;;5018506;28;19906;-29
2022/07/29 07:49:05;;;;;;;;;;;;;;;;;;5018388;28;19936;-29
2022/07/29 07:51:31;;;;;;;;;;;;;;;;;;5018393;28;19916;-28
2022/07/29 07:53:57;;;;;;;;;;;;;;;;;;5017966;28;19921;-29
2022/07/29 07:56:23;;;;;;;;;;;;;;;;;;5018112;28;19913;-29
2022/07/29 07:58:49;;;;;;;;;;;;;;;;;;5018256;28;20319;-29
2022/07/29 08:01:18;;;;;;;;;;;;;;;;;;5017068;28;19975;-29
2022/07/29 08:03:44;;;;;;;;;;;;;;;;;;5017731;28;19918;-29
2022/07/29 08:06:10;;;;;;;;;;;;;;;;;;5017821;28;19916;-29
2022/07/29 08:08:36;;;;;;;;;;;;;;;;;;5017893;28;19921;-29
2022/07/29 08:11:03;;;;;;;;;;;;;;;;;;5017096;28;19916;-29
2022/07/29 08:13:30;;;;;;;;;;;;;;;;;;5018133;28;19932;-29
2022/07/29 08:16:10;;;;;;;;;;;;;;;;;;5018616;28;19909;-29
2022/07/29 08:18:36;;;;;;;;;;;;;;;;;;5018154;28;19921;-29
2022/07/29 08:21:02;;;;;;;;;;;;;;;;;;5017813;28;20264;-29
2022/07/29 08:23:38;;;;;;;;;;;;;;;;;;5017657;28;19921;-29
2022/07/29 08:26:04;;;;;;;;;;;;;;;;;;5017733;28;20364;-29
2022/07/29 08:28:29;;;;;;;;;;;;;;;;;;5017627;28;19968;-29
2022/07/29 08:30:55;;;;;;;;;;;;;;;;;;5017558;28;20272;-29
2022/07/29 08:33:21;;;;;;;;;;;;;;;;;;5017470;28;19913;-29
2022/07/29 08:35:49;;;;;;;;;;;;;;;;;;5017651;28;19963;-29
2022/07/29 08:38:15;;;;;;;;;;;;;;;;;;5017477;28;19996;-29
2022/07/29 08:40:41;;;;;;;;;;;;;;;;;;5017543;28;20323;-28
2022/07/29 08:43:07;;;;;;;;;;;;;;;;;;5017432;28;19913;-29
2022/07/29 08:45:33;;;;;;;;;;;;;;;;;;5017439;28;19921;-29
2022/07/29 08:47:59;;;;;;;;;;;;;;;;;;5016837;28;19920;-29
2022/07/29 08:50:25;;;;;;;;;;;;;;;;;;5017353;28;19910;-29
2022/07/29 08:52:51;;;;;;;;;;;;;;;;;;5017136;28;19918;-29
2022/07/29 08:55:17;;;;;;;;;;;;;;;;;;5017319;28;19925;-29
2022/07/29 08:57:43;;;;;;;;;;;;;;;;;;5017161;28;19921;-29
2022/07/29 09:00:10;;;;;;;;;;;;;;;;;;5017236;28;19915;-28
2022/07/29 09:02:36;;;;;;;;;;;;;;;;;;5016602;28;19913;-28
2022/07/29 09:05:02;;;;;;;;;;;;;;;;;;5016050;28;19991;-29
2022/07/29 09:07:28;;;;;;;;;;;;;;;;;;5017038;28;20399;-29
2022/07/29 09:09:54;;;;;;;;;;;;;;;;;;5017025;28;19909;-29
2022/07/29 09:12:22;;;;;;;;;;;;;;;;;;5015905;28;19921;-29
2022/07/29 09:14:48;;;;;;;;;;;;;;;;;;5017179;28;19944;-29
2022/07/29 09:17:16;;;;;;;;;;;;;;;;;;5017182;28;19992;-29
2022/07/29 09:19:42;;;;;;;;;;;;;;;;;;5016750;28;19936;-28
2022/07/29 09:22:09;;;;;;;;;;;;;;;;;;5016795;28;19914;-29
2022/07/29 09:24:36;;;;;;;;;;;;;;;;;;5016756;28;19921;-29
2022/07/29 09:27:02;;;;;;;;;;;;;;;;;;5016423;28;19919;-28
2022/07/29 09:29:28;;;;;;;;;;;;;;;;;;5016279;28;20003;-29
2022/07/29 09:31:54;;;;;;;;;;;;;;;;;;5015368;28;19916;-29
2022/07/29 09:34:20;;;;;;;;;;;;;;;;;;5015454;28;19940;-28
2022/07/29 09:36:46;;;;;;;;;;;;;;;;;;5016843;28;19913;-29
2022/07/29 09:39:12;;;;;;;;;;;;;;;;;;5016310;28;19913;-29
2022/07/29 09:41:38;;;;;;;;;;;;;;;;;;5016309;28;19917;-29
2022/07/29 09:44:05;;;;;;;;;;;;;;;;;;5015980;28;19917;-29
2022/07/29 09:46:31;;;;;;;;;;;;;;;;;;5016241;28;20300;-28
2022/07/29 09:48:57;;;;;;;;;;;;;;;;;;5015959;28;19940;-29
2022/07/29 09:51:23;;;;;;;;;;;;;;;;;;5016076;28;20268;-29
2022/07/29 09:53:50;;;;;;;;;;;;;;;;;;5016249;28;19924;-29
2022/07/29 09:56:16;;;;;;;;;;;;;;;;;;5016276;28;19913;-29
2022/07/29 09:58:44;;;;;;;;;;;;;;;;;;5014877;28;20143;-29
2022/07/29 10:01:10;;;;;;;;;;;;;;;;;;5015757;28;20004;-28
2022/07/29 10:03:36;;;;;;;;;;;;;;;;;;5015672;28;19917;-29
2022/07/29 10:06:02;;;;;;;;;;;;;;;;;;5016493;28;19913;-29
2022/07/29 10:08:28;;;;;;;;;;;;;;;;;;5016134;28;20008;-28
2022/07/29 10:10:54;;;;;;;;;;;;;;;;;;5015868;28;19913;-29
2022/07/29 10:13:20;;;;;;;;;;;;;;;;;;5015633;28;19932;-30
2022/07/29 10:15:46;;;;;;;;;;;;;;;;;;5015696;28;19909;-30
2022/07/29 10:18:12;;;;;;;;;;;;;;;;;;5014735;28;19949;-29
2022/07/29 10:20:38;;;;;;;;;;;;;;;;;;5016024;28;20304;-29
2022/07/29 10:23:04;;;;;;;;;;;;;;;;;;5015477;28;19971;-29
2022/07/29 10:25:30;;;;;;;;;;;;;;;;;;5014646;28;20004;-28
2022/07/29 10:27:56;;;;;;;;;;;;;;;;;;5015596;28;19913;-29
2022/07/29 10:30:22;;;;;;;;;;;;;;;;;;5015705;28;19910;-29
2022/07/29 10:32:48;;;;;;;;;;;;;;;;;;5015648;28;19917;-37
2022/07/29 10:35:14;;;;;;;;;;;;;;;;;;5015554;28;19920;-28
2022/07/29 10:37:40;;;;;;;;;;;;;;;;;;5015688;28;19920;-29
2022/07/29 10:41:26;;;;;;;;;;;;;;;;;;5015358;28;20280;-29
2022/07/29 10:42:52;;;;;;;;;;;;;;;;;;5015157;28;19913;-29
2022/07/29 10:45:18;;;;;;;;;;;;;;;;;;5015490;28;20004;-29
2022/07/29 10:47:44;;;;;;;;;;;;;;;;;;5015209;28;19961;-28
2022/07/29 10:50:10;;;;;;;;;;;;;;;;;;5015200;28;19913;-29
2022/07/29 10:52:36;;;;;;;;;;;;;;;;;;5015203;28;19918;-28
2022/07/29 10:55:04;;;;;;;;;;;;;;;;;;5015200;28;20299;-29
2022/07/29 10:57:31;;;;;;;;;;;;;;;;;;5015299;28;19913;-29
2022/07/29 10:59:57;;;;;;;;;;;;;;;;;;5015010;28;19921;-29
2022/07/29 11:02:23;;;;;;;;;;;;;;;;;;5015105;28;19963;-28
2022/07/29 11:04:49;;;;;;;;;;;;;;;;;;5015197;28;19964;-29
2022/07/29 11:07:16;;;;;;;;;;;;;;;;;;5015447;28;19921;-29
2022/07/29 11:09:42;;;;;;;;;;;;;;;;;;5015452;28;20237;-29
2022/07/29 11:12:08;;;;;;;;;;;;;;;;;;5018554;28;20024;-29
2022/07/29 11:14:34;;;;;;;;;;;;;;;;;;5019418;28;20004;-29
2022/07/29 11:17:02;;;;;;;;;;;;;;;;;;5018073;28;20371;-28
2022/07/29 11:19:28;;;;;;;;;;;;;;;;;;5018946;28;19955;-29
2022/07/29 11:21:54;;;;;;;;;;;;;;;;;;5018905;28;19910;-28
2022/07/29 11:24:20;;;;;;;;;;;;;;;;;;5019062;28;19996;-28
2022/07/29 11:26:46;;;;;;;;;;;;;;;;;;5018993;28;20402;-29
2022/07/29 11:29:12;;;;;;;;;;;;;;;;;;5018701;28;19914;-29
2022/07/29 11:31:38;;;;;;;;;;;;;;;;;;5018762;28;19914;-28
2022/07/29 11:34:04;;;;;;;;;;;;;;;;;;5019016;28;19971;-29
2022/07/29 11:36:30;;;;;;;;;;;;;;;;;;5018678;28;19910;-28
2022/07/29 11:38:56;;;;;;;;;;;;;;;;;;5018941;28;19913;-29
2022/07/29 11:41:22;;;;;;;;;;;;;;;;;;5018909;28;20012;-29
2022/07/29 11:43:48;;;;;;;;;;;;;;;;;;5017231;28;19925;-29
2022/07/29 11:46:14;;;;;;;;;;;;;;;;;;5017541;28;19910;-29
2022/07/29 11:48:40;;;;;;;;;;;;;;;;;;5018448;28;19968;-29
2022/07/29 11:51:06;;;;;;;;;;;;;;;;;;5018328;28;20319;-29
2022/07/29 11:53:32;;;;;;;;;;;;;;;;;;5017291;28;19974;-29
2022/07/29 11:55:58;;;;;;;;;;;;;;;;;;5018624;28;20309;-29
2022/07/29 11:58:24;;;;;;;;;;;;;;;;;;5017208;28;19933;-29
2022/07/29 12:00:50;;;;;;;;;;;;;;;;;;5017172;28;20307;-29
2022/07/29 12:03:16;;;;;;;;;;;;;;;;;;5017820;28;19918;-29
2022/07/29 12:05:42;;;;;;;;;;;;;;;;;;5017177;28;19913;-29
2022/07/29 12:08:08;;;;;;;;;;;;;;;;;;5018122;28;19917;-28
2022/07/29 12:10:34;;;;;;;;;;;;;;;;;;5018318;28;20052;-29
2022/07/29 12:13:00;;;;;;;;;;;;;;;;;;5017969;28;20019;-29
2022/07/29 12:15:26;;;;;;;;;;;;;;;;;;5017948;28;20011;-29
2022/07/29 12:17:52;;;;;;;;;;;;;;;;;;5017769;28;19913;-29
2022/07/29 12:20:18;;;;;;;;;;;;;;;;;;5018000;28;19967;-29
2022/07/29 12:22:44;;;;;;;;;;;;;;;;;;5016801;28;19913;-28
2022/07/29 12:25:10;;;;;;;;;;;;;;;;;;5016900;28;19910;-29
2022/07/29 12:27:36;;;;;;;;;;;;;;;;;;5017613;28;20012;-29
2022/07/29 12:30:02;;;;;;;;;;;;;;;;;;5017354;28;20325;-29
2022/07/29 12:32:28;;;;;;;;;;;;;;;;;;5016327;28;19951;-29
2022/07/29 12:34:54;;;;;;;;;;;;;;;;;;5017558;28;20405;-29
2022/07/29 12:37:21;;;;;;;;;;;;;;;;;;5017625;28;19964;-29
2022/07/29 12:39:47;;;;;;;;;;;;;;;;;;5017797;28;20214;-29
2022/07/29 12:42:13;;;;;;;;;;;;;;;;;;5017703;28;20329;-29
2022/07/29 12:44:39;;;;;;;;;;;;;;;;;;5017333;28;20238;-29
2022/07/29 12:47:05;;;;;;;;;;;;;;;;;;5017433;28;19917;-28
2022/07/29 12:49:32;;;;;;;;;;;;;;;;;;5017377;28;20000;-28
2022/07/29 12:51:58;;;;;;;;;;;;;;;;;;5017308;28;19909;-33
2022/07/29 12:54:23;;;;;;;;;;;;;;;;;;5017091;28;19936;-28
2022/07/29 12:56:49;;;;;;;;;;;;;;;;;;5016095;28;19921;-29
2022/07/29 12:59:16;;;;;;;;;;;;;;;;;;5017014;28;19921;-29
2022/07/29 13:01:42;;;;;;;;;;;;;;;;;;5017277;28;20309;-29
2022/07/29 13:04:08;;;;;;;;;;;;;;;;;;5016713;28;19960;-28
2022/07/29 13:06:34;;;;;;;;;;;;;;;;;;5017194;28;19913;-29
2022/07/29 13:09:00;;;;;;;;;;;;;;;;;;5016839;28;19910;-28
2022/07/29 13:11:26;;;;;;;;;;;;;;;;;;5017108;28;19920;-29
2022/07/29 13:13:52;;;;;;;;;;;;;;;;;;5016560;28;19918;-28
2022/07/29 13:16:18;;;;;;;;;;;;;;;;;;5016803;28;19960;-29
2022/07/29 13:18:44;;;;;;;;;;;;;;;;;;5017009;28;20241;-29
2022/07/29 13:21:10;;;;;;;;;;;;;;;;;;5016802;28;19910;-29
2022/07/29 13:23:36;;;;;;;;;;;;;;;;;;5016690;28;20360;-29
2022/07/29 13:26:02;;;;;;;;;;;;;;;;;;5016954;28;19913;-29
2022/07/29 13:28:28;;;;;;;;;;;;;;;;;;5016758;28;20321;-28
2022/07/29 13:30:54;;;;;;;;;;;;;;;;;;5016744;28;19920;-29
2022/07/29 13:33:20;;;;;;;;;;;;;;;;;;5016130;28;20261;-28
2022/07/29 13:35:47;;;;;;;;;;;;;;;;;;5016460;28;19913;-29
2022/07/29 13:38:13;;;;;;;;;;;;;;;;;;5016729;28;20296;-29
2022/07/29 13:40:39;;;;;;;;;;;;;;;;;;5016672;28;19915;-28
2022/07/29 13:43:05;;;;;;;;;;;;;;;;;;5016145;28;19913;-29
2022/07/29 13:45:31;;;;;;;;;;;;;;;;;;5016655;28;19913;-29
2022/07/29 13:47:57;;;;;;;;;;;;;;;;;;5016227;28;19914;-29
2022/07/29 13:50:23;;;;;;;;;;;;;;;;;;5016113;28;20348;-29
2022/07/29 13:52:50;;;;;;;;;;;;;;;;;;5015904;28;20303;-28
2022/07/29 13:55:16;;;;;;;;;;;;;;;;;;5016846;28;19909;-29
2022/07/29 13:57:42;;;;;;;;;;;;;;;;;;5016351;28;20350;-29
2022/07/29 14:00:08;;;;;;;;;;;;;;;;;;5015322;28;20004;-29
2022/07/29 14:02:34;;;;;;;;;;;;;;;;;;5014671;28;19968;-29
2022/07/29 14:05:00;;;;;;;;;;;;;;;;;;5016267;28;19925;-29
2022/07/29 14:07:26;;;;;;;;;;;;;;;;;;5015955;28;19914;-29
2022/07/29 14:09:52;;;;;;;;;;;;;;;;;;5015896;28;19996;-28
2022/07/29 14:12:18;;;;;;;;;;;;;;;;;;5015725;28;19932;-28
2022/07/29 14:14:44;;;;;;;;;;;;;;;;;;5015848;28;20000;-28
2022/07/29 14:17:10;;;;;;;;;;;;;;;;;;5015787;28;19913;-29
2022/07/29 14:19:37;;;;;;;;;;;;;;;;;;5015545;28;19920;-29
2022/07/29 14:22:03;;;;;;;;;;;;;;;;;;5015616;28;19914;-29
2022/07/29 14:24:29;;;;;;;;;;;;;;;;;;5015757;28;19984;-29
2022/07/29 14:26:55;;;;;;;;;;;;;;;;;;5014649;28;19913;-28
2022/07/29 14:29:21;;;;;;;;;;;;;;;;;;5015584;28;19920;-28
2022/07/29 14:31:47;;;;;;;;;;;;;;;;;;5015562;28;19987;-29
2022/07/29 14:34:15;;;;;;;;;;;;;;;;;;5014522;28;19925;-29
2022/07/29 14:36:41;;;;;;;;;;;;;;;;;;5015336;28;20000;-28
2022/07/29 14:39:07;;;;;;;;;;;;;;;;;;5015365;28;19948;-29
2022/07/29 14:41:33;;;;;;;;;;;;;;;;;;5015507;28;19928;-28
2022/07/29 14:44:02;;;;;;;;;;;;;;;;;;5014301;28;19922;-28
2022/07/29 14:46:28;;;;;;;;;;;;;;;;;;5014817;28;19975;-30
2022/07/29 14:48:54;;;;;;;;;;;;;;;;;;5015409;28;20315;-29
2022/07/29 14:51:20;;;;;;;;;;;;;;;;;;5015588;28;20276;-29
2022/07/29 14:53:46;;;;;;;;;;;;;;;;;;5015144;28;19913;-29
2022/07/29 14:56:12;;;;;;;;;;;;;;;;;;5015330;28;20364;-29
2022/07/29 14:58:37;;;;;;;;;;;;;;;;;;5015507;28;19953;-29
2022/07/29 15:01:03;;;;;;;;;;;;;;;;;;5014346;28;19910;-29
2022/07/29 15:03:29;;;;;;;;;;;;;;;;;;5014909;28;19918;-29
2022/07/29 15:05:55;;;;;;;;;;;;;;;;;;5015127;28;20303;-29
2022/07/29 15:08:21;;;;;;;;;;;;;;;;;;5015165;28;19967;-29
2022/07/29 15:10:47;;;;;;;;;;;;;;;;;;5015100;28;19914;-28
2022/07/29 15:13:13;;;;;;;;;;;;;;;;;;5014925;28;19932;-28
2022/07/29 15:15:41;;;;;;;;;;;;;;;;;;5015025;28;20337;-28
2022/07/29 15:18:07;;;;;;;;;;;;;;;;;;5015023;28;19914;-29
2022/07/29 15:20:33;;;;;;;;;;;;;;;;;;5015153;28;20012;-29
2022/07/29 15:22:58;;;;;;;;;;;;;;;;;;5015092;28;20237;-29
2022/07/29 15:25:25;;;;;;;;;;;;;;;;;;5015338;28;19909;-29
2022/07/29 15:27:51;;;;;;;;;;;;;;;;;;5015250;28;20352;-29
2022/07/29 15:30:17;;;;;;;;;;;;;;;;;;5014909;28;20004;-29
2022/07/29 15:32:43;;;;;;;;;;;;;;;;;;5014727;28;20015;-29
2022/07/29 15:35:10;;;;;;;;;;;;;;;;;;5014869;28;19935;-35
2022/07/29 15:37:36;;;;;;;;;;;;;;;;;;5014888;28;20008;-29
2022/07/29 15:40:02;;;;;;;;;;;;;;;;;;5014809;28;19952;-29
2022/07/29 15:42:28;;;;;;;;;;;;;;;;;;5014927;28;19909;-29
2022/07/29 15:44:55;;;;;;;;;;;;;;;;;;5015112;28;20331;-28
2022/07/29 15:47:21;;;;;;;;;;;;;;;;;;5014800;28;20004;-29
2022/07/29 15:49:48;;;;;;;;;;;;;;;;;;5014770;28;19996;-29
2022/07/29 15:52:14;;;;;;;;;;;;;;;;;;5013622;28;19932;-29
2022/07/29 15:54:40;;;;;;;;;;;;;;;;;;5014730;28;19910;-29
2022/07/29 15:57:06;;;;;;;;;;;;;;;;;;5014737;28;20340;-29
2022/07/29 15:59:32;;;;;;;;;;;;;;;;;;5018468;28;19971;-29
2022/07/29 16:01:58;;;;;;;;;;;;;;;;;;5017294;28;19920;-29
2022/07/29 16:04:24;;;;;;;;;;;;;;;;;;5017046;28;20293;-28
2022/07/29 16:06:50;;;;;;;;;;;;;;;;;;5018042;28;20003;-28
2022/07/29 16:09:16;;;;;;;;;;;;;;;;;;5018584;28;19948;-29
2022/07/29 16:11:42;;;;;;;;;;;;;;;;;;5018254;28;19917;-29
2022/07/29 16:14:09;;;;;;;;;;;;;;;;;;5017850;28;19924;-29
2022/07/29 16:16:37;;;;;;;;;;;;;;;;;;5017930;28;20000;-29
2022/07/29 16:19:03;;;;;;;;;;;;;;;;;;5018242;28;19980;-28
2022/07/29 16:21:30;;;;;;;;;;;;;;;;;;5016944;28;19944;-29
2022/07/29 16:23:57;;;;;;;;;;;;;;;;;;5017807;28;19913;-29
2022/07/29 16:26:23;;;;;;;;;;;;;;;;;;5017902;28;19913;-28
2022/07/29 16:28:48;;;;;;;;;;;;;;;;;;5018034;28;19980;-29
2022/07/29 16:31:14;;;;;;;;;;;;;;;;;;5017737;28;20253;-29
2022/07/29 16:33:40;;;;;;;;;;;;;;;;;;5017522;28;20356;-29
2022/07/29 16:36:06;;;;;;;;;;;;;;;;;;5016705;28;19921;-29
2022/07/29 16:38:32;;;;;;;;;;;;;;;;;;5017635;28;20012;-28
2022/07/29 16:40:58;;;;;;;;;;;;;;;;;;5017491;28;19914;-29
2022/07/29 16:43:24;;;;;;;;;;;;;;;;;;5017688;28;19997;-29
2022/07/29 16:45:50;;;;;;;;;;;;;;;;;;5017765;28;20018;-29